Decoded Metar for OIAA (ABADAN in IRAN) (IATA:ABD) | Meteo·Mobile Aviation Weather
aviador You're here:

OIAA Decoded Metar

ABADAN in IRAN
Report Time2019-05-21 10:50:00
UTC Time2019-05-21 11:35:57
Flight Rules vfr VFR
Wind020° at 06 kt
W.Decomp.*RWY 32: 3.3 kt HW 5.0 kt RCW
Visibility9999 m
Phenomena:N/A
Clouds:N/A
Expected CloudBase > 10,400 ft AGL from Temp-Dew spread
CeilingNone
Temp38°C (ISA +23)
Dew Point12°C (21% RH)
Heat Index36.9°C
AAT36.4°C
QNH1009 hPa
Density Alt2,963 ft
Elevation36 ft
Report Wrong Elevation
Raw Report
METAR OIAA 211050Z 02006KT CAVOK 38/12 Q1009=

Extra information for OIAA:More info

Metar Taf Metar & Taf Last 4 Metars F.Rules Stats Wind Profile Meteogram Temp Stats Airport Information Weather charts Add Link Nearby VenuesMetar ALERT Operation Metar Decoded Social comments